A2SWK WAPA-WAPP
Flight info
| Callsign | A2SWK |
|---|---|
| Flight time | 0h 26m |
| Altitude | 8000 |
| Route | SUKTI DCT PP604 |
| Aircraft | K100/L-SBDGRY/S |
Departure
| Time | 2026-05-08 02:19 |
|---|---|
| Airport | Amahai Airport (WAPA) |
Arrival
| Time | 2026-05-08 02:45 |
|---|---|
| Airport | Pattimura International Airport (WAPP) |
| Time | Latitude | Longitude | Altitude | Speed | Heading |
|---|---|---|---|---|---|
| 2026-05-08 02:15 | -3.34657 | 128.92690 | 31 ft | 0 kts | 234° |
| 2026-05-08 02:16 | -3.34667 | 128.92674 | 31 ft | 4 kts | 243° |
| 2026-05-08 02:16 | -3.34680 | 128.92638 | 31 ft | 8 kts | 250° |
| 2026-05-08 02:16 | -3.34647 | 128.92580 | 30 ft | 13 kts | 316° |
| 2026-05-08 02:17 | -3.34568 | 128.92498 | 27 ft | 19 kts | 311° |
| 2026-05-08 02:17 | -3.34478 | 128.92409 | 28 ft | 12 kts | 315° |
| 2026-05-08 02:17 | -3.34470 | 128.92392 | 28 ft | 3 kts | 152° |
| 2026-05-08 02:17 | -3.34474 | 128.92396 | 28 ft | 0 kts | 135° |
| 2026-05-08 02:18 | -3.34511 | 128.92433 | 27 ft | 35 kts | 136° |
| 2026-05-08 02:18 | -3.34836 | 128.92765 | 92 ft | 86 kts | 139° |
| 2026-05-08 02:18 | -3.35193 | 128.93165 | 516 ft | 69 kts | 134° |
| 2026-05-08 02:19 | -3.35550 | 128.93386 | 786 ft | 61 kts | 186° |
| 2026-05-08 02:19 | -3.35757 | 128.92992 | 1000 ft | 85 kts | 283° |
| 2026-05-08 02:19 | -3.35529 | 128.92369 | 1263 ft | 109 kts | 283° |
| 2026-05-08 02:19 | -3.35542 | 128.91578 | 1443 ft | 122 kts | 248° |
| 2026-05-08 02:20 | -3.35871 | 128.90730 | 1689 ft | 138 kts | 249° |
| 2026-05-08 02:20 | -3.36254 | 128.89803 | 1924 ft | 149 kts | 243° |
| 2026-05-08 02:20 | -3.36711 | 128.88846 | 2163 ft | 156 kts | 240° |
| 2026-05-08 02:20 | -3.37200 | 128.87868 | 2417 ft | 159 kts | 241° |
| 2026-05-08 02:21 | -3.37680 | 128.86859 | 2660 ft | 162 kts | 243° |
| 2026-05-08 02:21 | -3.38150 | 128.85835 | 2942 ft | 160 kts | 242° |
| 2026-05-08 02:21 | -3.38608 | 128.84835 | 3299 ft | 156 kts | 241° |
| 2026-05-08 02:21 | -3.39050 | 128.83870 | 3660 ft | 153 kts | 242° |
| 2026-05-08 02:22 | -3.39493 | 128.82904 | 4019 ft | 153 kts | 241° |
| 2026-05-08 02:22 | -3.39942 | 128.81922 | 4387 ft | 153 kts | 241° |
| 2026-05-08 02:22 | -3.40378 | 128.80967 | 4746 ft | 152 kts | 242° |
| 2026-05-08 02:22 | -3.40818 | 128.80006 | 5103 ft | 152 kts | 242° |
| 2026-05-08 02:23 | -3.41255 | 128.79044 | 5460 ft | 151 kts | 242° |
| 2026-05-08 02:23 | -3.41691 | 128.78090 | 5820 ft | 150 kts | 242° |
| 2026-05-08 02:23 | -3.42126 | 128.77141 | 6188 ft | 149 kts | 243° |
| 2026-05-08 02:23 | -3.42558 | 128.76196 | 6536 ft | 149 kts | 242° |
| 2026-05-08 02:24 | -3.42984 | 128.75266 | 6880 ft | 149 kts | 243° |
| 2026-05-08 02:24 | -3.43432 | 128.74280 | 6994 ft | 165 kts | 244° |
| 2026-05-08 02:24 | -3.43925 | 128.73190 | 6994 ft | 177 kts | 243° |
| 2026-05-08 02:24 | -3.44450 | 128.72046 | 6997 ft | 184 kts | 243° |
| 2026-05-08 02:25 | -3.44992 | 128.70866 | 7001 ft | 188 kts | 243° |
| 2026-05-08 02:25 | -3.45541 | 128.69667 | 6993 ft | 190 kts | 243° |
| 2026-05-08 02:25 | -3.46091 | 128.68459 | 6995 ft | 191 kts | 244° |
| 2026-05-08 02:25 | -3.46642 | 128.67250 | 6993 ft | 191 kts | 243° |
| 2026-05-08 02:26 | -3.47144 | 128.66035 | 6993 ft | 192 kts | 251° |
| 2026-05-08 02:26 | -3.47516 | 128.64753 | 6992 ft | 192 kts | 251° |
| 2026-05-08 02:26 | -3.47900 | 128.63470 | 6990 ft | 193 kts | 251° |
| 2026-05-08 02:26 | -3.48291 | 128.62172 | 6992 ft | 196 kts | 251° |
| 2026-05-08 02:27 | -3.48681 | 128.60869 | 6988 ft | 196 kts | 251° |
| 2026-05-08 02:27 | -3.49069 | 128.59571 | 6995 ft | 194 kts | 252° |
| 2026-05-08 02:27 | -3.49458 | 128.58281 | 6994 ft | 194 kts | 250° |
| 2026-05-08 02:27 | -3.49843 | 128.56986 | 6994 ft | 193 kts | 253° |
| 2026-05-08 02:28 | -3.50227 | 128.55703 | 6993 ft | 192 kts | 251° |
| 2026-05-08 02:28 | -3.50614 | 128.54428 | 6994 ft | 192 kts | 251° |
| 2026-05-08 02:28 | -3.50999 | 128.53144 | 6996 ft | 192 kts | 251° |
| 2026-05-08 02:28 | -3.51386 | 128.51854 | 6997 ft | 194 kts | 251° |
| 2026-05-08 02:29 | -3.51773 | 128.50559 | 6974 ft | 194 kts | 252° |
| 2026-05-08 02:29 | -3.52266 | 128.49285 | 6856 ft | 199 kts | 244° |
| 2026-05-08 02:29 | -3.52808 | 128.47994 | 6709 ft | 204 kts | 245° |
| 2026-05-08 02:29 | -3.53351 | 128.46666 | 6539 ft | 206 kts | 246° |
| 2026-05-08 02:30 | -3.53897 | 128.45337 | 6369 ft | 206 kts | 245° |
| 2026-05-08 02:30 | -3.54447 | 128.44008 | 6198 ft | 207 kts | 246° |
| 2026-05-08 02:30 | -3.54995 | 128.42676 | 6013 ft | 206 kts | 245° |
| 2026-05-08 02:30 | -3.55543 | 128.41350 | 5844 ft | 206 kts | 245° |
| 2026-05-08 02:31 | -3.56092 | 128.40021 | 5681 ft | 207 kts | 245° |
| 2026-05-08 02:31 | -3.56638 | 128.38691 | 5498 ft | 204 kts | 245° |
| 2026-05-08 02:31 | -3.57169 | 128.37404 | 5328 ft | 197 kts | 244° |
| 2026-05-08 02:31 | -3.57687 | 128.36148 | 5165 ft | 194 kts | 244° |
| 2026-05-08 02:32 | -3.58191 | 128.34926 | 5001 ft | 191 kts | 245° |
| 2026-05-08 02:32 | -3.58696 | 128.33692 | 4767 ft | 192 kts | 244° |
| 2026-05-08 02:32 | -3.59202 | 128.32441 | 4521 ft | 195 kts | 244° |
| 2026-05-08 02:32 | -3.59713 | 128.31182 | 4282 ft | 195 kts | 244° |
| 2026-05-08 02:33 | -3.60228 | 128.29916 | 4042 ft | 196 kts | 244° |
| 2026-05-08 02:33 | -3.60745 | 128.28641 | 3802 ft | 198 kts | 245° |
| 2026-05-08 02:33 | -3.61260 | 128.27365 | 3561 ft | 196 kts | 244° |
| 2026-05-08 02:33 | -3.61774 | 128.26102 | 3325 ft | 196 kts | 244° |
| 2026-05-08 02:34 | -3.62286 | 128.24839 | 3087 ft | 196 kts | 244° |
| 2026-05-08 02:34 | -3.62799 | 128.23582 | 2839 ft | 195 kts | 243° |
| 2026-05-08 02:34 | -3.63477 | 128.22458 | 2640 ft | 187 kts | 231° |
| 2026-05-08 02:34 | -3.64238 | 128.21434 | 2511 ft | 177 kts | 221° |
| 2026-05-08 02:35 | -3.65100 | 128.20597 | 2512 ft | 170 kts | 220° |
| 2026-05-08 02:35 | -3.65931 | 128.19762 | 2377 ft | 168 kts | 221° |
| 2026-05-08 02:35 | -3.66741 | 128.18950 | 2313 ft | 160 kts | 218° |
| 2026-05-08 02:35 | -3.67511 | 128.18184 | 2314 ft | 153 kts | 218° |
| 2026-05-08 02:36 | -3.68274 | 128.17455 | 2310 ft | 150 kts | 218° |
| 2026-05-08 02:36 | -3.68775 | 128.16522 | 2318 ft | 153 kts | 251° |
| 2026-05-08 02:36 | -3.68855 | 128.15549 | 2311 ft | 129 kts | 275° |
| 2026-05-08 02:36 | -3.68645 | 128.14749 | 2308 ft | 113 kts | 288° |
| 2026-05-08 02:37 | -3.68417 | 128.14037 | 2308 ft | 103 kts | 286° |
| 2026-05-08 02:37 | -3.68205 | 128.13372 | 2305 ft | 98 kts | 287° |
| 2026-05-08 02:37 | -3.68117 | 128.12703 | 2301 ft | 97 kts | 264° |
| 2026-05-08 02:37 | -3.68240 | 128.12035 | 2211 ft | 106 kts | 247° |
| 2026-05-08 02:38 | -3.68727 | 128.11299 | 1535 ft | 137 kts | 225° |
| 2026-05-08 02:38 | -3.69363 | 128.10568 | 844 ft | 139 kts | 221° |
| 2026-05-08 02:38 | -3.70039 | 128.09932 | 333 ft | 127 kts | 223° |
| 2026-05-08 02:38 | -3.70642 | 128.09351 | 143 ft | 113 kts | 223° |
| 2026-05-08 02:39 | -3.71207 | 128.08980 | 217 ft | 85 kts | 184° |
| 2026-05-08 02:39 | -3.71696 | 128.09222 | 224 ft | 80 kts | 129° |
| 2026-05-08 02:39 | -3.71874 | 128.09750 | 226 ft | 79 kts | 108° |
| 2026-05-08 02:39 | -3.71989 | 128.10260 | 285 ft | 71 kts | 101° |
| 2026-05-08 02:40 | -3.71918 | 128.10746 | 299 ft | 69 kts | 80° |
| 2026-05-08 02:40 | -3.71829 | 128.11218 | 295 ft | 71 kts | 85° |
| 2026-05-08 02:40 | -3.71682 | 128.11699 | 321 ft | 77 kts | 70° |
| 2026-05-08 02:40 | -3.71337 | 128.12152 | 304 ft | 85 kts | 57° |
| 2026-05-08 02:41 | -3.70877 | 128.12559 | 218 ft | 93 kts | 39° |
| 2026-05-08 02:41 | -3.70398 | 128.12926 | 270 ft | 81 kts | 45° |
| 2026-05-08 02:41 | -3.69979 | 128.13241 | 409 ft | 69 kts | 41° |
| 2026-05-08 02:41 | -3.69609 | 128.13500 | 492 ft | 63 kts | 34° |
| 2026-05-08 02:42 | -3.69229 | 128.13741 | 469 ft | 68 kts | 24° |
| 2026-05-08 02:42 | -3.68797 | 128.13962 | 509 ft | 72 kts | 25° |
| 2026-05-08 02:42 | -3.68404 | 128.13812 | 481 ft | 68 kts | 276° |
| 2026-05-08 02:42 | -3.68374 | 128.13261 | 336 ft | 84 kts | 266° |
| 2026-05-08 02:43 | -3.68472 | 128.12676 | 317 ft | 87 kts | 251° |
| 2026-05-08 02:43 | -3.68623 | 128.12072 | 282 ft | 86 kts | 251° |
| 2026-05-08 02:43 | -3.68816 | 128.11506 | 275 ft | 85 kts | 241° |
| 2026-05-08 02:43 | -3.69067 | 128.10981 | 290 ft | 82 kts | 231° |
| 2026-05-08 02:44 | -3.69425 | 128.10551 | 230 ft | 80 kts | 221° |
| 2026-05-08 02:44 | -3.69815 | 128.10169 | 199 ft | 77 kts | 220° |
| 2026-05-08 02:44 | -3.70174 | 128.09817 | 125 ft | 70 kts | 223° |
| 2026-05-08 02:44 | -3.70507 | 128.09484 | 68 ft | 65 kts | 220° |
| 2026-05-08 02:45 | -3.70815 | 128.09182 | 55 ft | 54 kts | 225° |
| 2026-05-08 02:45 | -3.71040 | 128.08956 | 57 ft | 39 kts | 227° |
| 2026-05-08 02:45 | -3.71078 | 128.08848 | 54 ft | 24 kts | 312° |
| 2026-05-08 02:45 | -3.70945 | 128.08766 | 58 ft | 23 kts | 4° |
| 2026-05-08 02:46 | -3.70779 | 128.08767 | 59 ft | 25 kts | 1° |
| 2026-05-08 02:46 | -3.70671 | 128.08746 | 59 ft | 12 kts | 354° |
| 2026-05-08 02:46 | -3.70630 | 128.08747 | 59 ft | 0 kts | 0° |